createdAt,value
2022-10-20T00:00:16.920Z,10.34
2022-10-20T00:01:16.487Z,10.31
2022-10-20T00:02:16.663Z,10.32
2022-10-20T00:03:16.583Z,10.32
2022-10-20T00:04:16.545Z,10.38
2022-10-20T00:05:16.922Z,10.42
2022-10-20T00:06:19.707Z,10.42
2022-10-20T00:07:16.621Z,10.4
2022-10-20T00:08:16.933Z,10.42
2022-10-20T00:09:16.578Z,10.44
2022-10-20T00:10:16.954Z,10.43
2022-10-20T00:11:16.611Z,10.46
2022-10-20T00:12:16.581Z,10.47
2022-10-20T00:13:16.637Z,10.47
2022-10-20T00:14:16.677Z,10.45
2022-10-20T00:15:16.932Z,10.44
2022-10-20T00:16:16.681Z,10.46
2022-10-20T00:17:19.589Z,10.44
2022-10-20T00:18:16.589Z,10.4
2022-10-20T00:19:16.618Z,10.33
2022-10-20T00:20:16.856Z,10.29
2022-10-20T00:21:16.563Z,10.31
2022-10-20T00:22:16.460Z,10.34
2022-10-20T00:23:16.848Z,10.34
2022-10-20T00:24:16.507Z,10.34
2022-10-20T00:25:16.921Z,10.34
2022-10-20T00:26:16.676Z,10.36
2022-10-20T00:27:16.618Z,10.37
2022-10-20T00:28:19.595Z,10.4
2022-10-20T00:30:25.685Z,10.33
2022-10-20T00:31:23.775Z,10.32
2022-10-20T00:32:23.834Z,10.29
2022-10-20T00:33:23.728Z,10.27
2022-10-20T00:34:23.750Z,10.23
2022-10-20T00:35:29.765Z,10.23
2022-10-20T00:36:23.833Z,10.28
2022-10-20T00:37:23.722Z,10.26
2022-10-20T00:38:24.082Z,10.23
2022-10-20T00:39:23.807Z,10.19
2022-10-20T00:40:24.091Z,10.11
2022-10-20T00:41:23.621Z,10.11
2022-10-20T00:42:23.629Z,10.09
2022-10-20T00:43:23.648Z,10.08
2022-10-20T00:44:23.689Z,10.08
2022-10-20T00:45:24.078Z,10.07
2022-10-20T00:46:26.639Z,10.07
2022-10-20T00:47:23.819Z,10.08
2022-10-20T00:48:23.793Z,10.09
2022-10-20T00:49:23.652Z,10.09
2022-10-20T00:50:24.076Z,10.09
2022-10-20T00:51:23.701Z,10.1
2022-10-20T00:52:23.608Z,10.12
2022-10-20T00:53:24.064Z,10.12
2022-10-20T00:54:23.805Z,10.1
2022-10-20T00:55:23.999Z,10.13
2022-10-20T00:56:23.831Z,10.12
2022-10-20T00:57:26.705Z,10.08
2022-10-20T00:58:23.705Z,10.07
2022-10-20T00:59:23.616Z,10.06
2022-10-20T01:00:24.072Z,10.04
2022-10-20T01:01:23.916Z,10.04
2022-10-20T01:02:23.715Z,10.07
2022-10-20T01:03:23.770Z,10.06
2022-10-20T01:04:23.761Z,10.12
2022-10-20T01:05:23.998Z,10.15
2022-10-20T01:06:23.845Z,10.14
2022-10-20T01:07:23.810Z,10.14
2022-10-20T01:08:29.721Z,10.13
2022-10-20T01:09:23.708Z,10.13
2022-10-20T01:10:24.071Z,10.1
2022-10-20T01:11:23.684Z,10.07
2022-10-20T01:12:23.630Z,10.05
2022-10-20T01:13:23.774Z,10.05
2022-10-20T01:14:23.641Z,10.06
2022-10-20T01:16:30.971Z,10.08
2022-10-20T01:17:30.892Z,10.05
2022-10-20T01:18:30.915Z,10.04
2022-10-20T01:19:30.911Z,10.07
2022-10-20T01:20:31.345Z,10.07
2022-10-20T01:21:33.966Z,10.07
2022-10-20T01:22:30.992Z,10.08
2022-10-20T01:23:31.336Z,10.06
2022-10-20T01:24:30.895Z,10.06
2022-10-20T01:25:31.329Z,10.04
2022-10-20T01:26:30.989Z,10.03
2022-10-20T01:27:31.018Z,9.99
2022-10-20T01:28:30.892Z,9.96
2022-10-20T01:29:30.960Z,9.94
2022-10-20T01:30:31.337Z,9.94
2022-10-20T01:31:31.108Z,9.97
2022-10-20T01:32:33.967Z,9.98
2022-10-20T01:33:30.993Z,9.95
2022-10-20T01:34:30.917Z,9.97
2022-10-20T01:35:31.328Z,9.92
2022-10-20T01:36:33.777Z,9.9
2022-10-20T01:37:40.562Z,9.93
2022-10-20T01:38:31.307Z,9.91
2022-10-20T01:39:30.882Z,9.82
2022-10-20T01:40:31.332Z,9.84
2022-10-20T01:41:30.934Z,9.81
2022-10-20T01:42:30.957Z,9.8
2022-10-20T01:43:33.948Z,9.81
2022-10-20T01:44:30.969Z,9.83
2022-10-20T01:45:31.348Z,9.83
2022-10-20T01:46:30.974Z,9.82
2022-10-20T01:47:30.898Z,9.81
2022-10-20T01:48:31.073Z,9.85
2022-10-20T01:49:30.901Z,9.82
2022-10-20T01:50:31.331Z,9.79
2022-10-20T01:51:31.011Z,9.78
2022-10-20T01:52:30.888Z,9.75
2022-10-20T01:53:31.329Z,9.76
2022-10-20T01:54:33.930Z,9.77
2022-10-20T01:55:31.251Z,9.76
2022-10-20T01:56:31.065Z,9.75
2022-10-20T01:57:30.899Z,9.73
2022-10-20T01:58:30.892Z,9.74
2022-10-20T01:59:30.919Z,9.68
2022-10-20T02:00:31.270Z,9.68
2022-10-20T02:01:30.962Z,9.69
2022-10-20T02:02:31.032Z,9.68
2022-10-20T02:03:30.895Z,9.7
2022-10-20T02:04:30.979Z,9.71
2022-10-20T02:05:37.050Z,9.71
2022-10-20T02:06:30.950Z,9.71
2022-10-20T02:07:30.873Z,9.72
2022-10-20T02:08:31.427Z,9.73
2022-10-20T02:09:30.923Z,9.72
2022-10-20T02:10:31.337Z,9.71
2022-10-20T02:11:30.935Z,9.69
2022-10-20T02:12:31.011Z,9.69
2022-10-20T02:13:31.085Z,9.69
2022-10-20T02:14:30.975Z,9.65
2022-10-20T02:15:31.333Z,9.63
2022-10-20T02:16:33.952Z,9.63
2022-10-20T02:17:31.076Z,9.61
2022-10-20T02:18:30.866Z,9.61
2022-10-20T02:19:30.990Z,9.59
2022-10-20T02:20:31.332Z,9.56
2022-10-20T02:21:30.913Z,9.52
2022-10-20T02:22:30.904Z,9.5
2022-10-20T02:23:35.053Z,9.51
2022-10-20T02:24:31.108Z,9.53
2022-10-20T02:25:31.333Z,9.53
2022-10-20T02:26:31.000Z,9.54
2022-10-20T02:27:34.020Z,9.52
2022-10-20T02:28:30.973Z,9.52
2022-10-20T02:29:31.093Z,9.51
2022-10-20T02:30:31.374Z,9.5
2022-10-20T02:31:30.971Z,9.48
2022-10-20T02:32:30.880Z,9.49
2022-10-20T02:33:30.904Z,9.48
2022-10-20T02:34:30.897Z,9.48
2022-10-20T02:35:31.328Z,9.48
2022-10-20T02:36:30.981Z,9.46
2022-10-20T02:37:30.903Z,9.44
2022-10-20T02:38:37.002Z,9.44
2022-10-20T02:39:30.957Z,9.44
2022-10-20T02:40:31.288Z,9.43
2022-10-20T02:41:33.283Z,9.41
2022-10-20T02:42:31.008Z,9.42
2022-10-20T02:43:30.886Z,9.44
2022-10-20T02:44:31.042Z,9.44
2022-10-20T02:45:31.329Z,9.42
2022-10-20T02:46:30.980Z,9.42
2022-10-20T02:47:30.887Z,9.42
2022-10-20T02:48:30.883Z,9.42
2022-10-20T02:49:33.951Z,9.42
2022-10-20T02:50:31.265Z,9.42
2022-10-20T02:51:31.069Z,9.4
2022-10-20T02:52:30.990Z,9.39
2022-10-20T02:53:31.328Z,9.42
2022-10-20T02:54:30.999Z,9.49
2022-10-20T02:55:31.005Z,9.52
2022-10-20T02:56:31.355Z,9.51
2022-10-20T02:57:31.121Z,9.46
2022-10-20T02:58:31.010Z,9.47
2022-10-20T02:59:31.004Z,9.53
2022-10-20T03:00:37.042Z,9.51
2022-10-20T03:01:31.166Z,9.51
2022-10-20T03:02:30.990Z,9.5
2022-10-20T03:03:30.899Z,9.48
2022-10-20T03:04:31.035Z,9.46
2022-10-20T03:05:31.257Z,9.45
2022-10-20T03:06:30.893Z,9.42
2022-10-20T03:07:30.891Z,9.43
2022-10-20T03:08:31.389Z,9.42
2022-10-20T03:09:31.017Z,9.41
2022-10-20T03:10:31.330Z,9.42
2022-10-20T03:11:33.902Z,9.53
2022-10-20T03:12:32.248Z,9.58
2022-10-20T03:13:31.010Z,9.62
2022-10-20T03:14:31.126Z,9.58
2022-10-20T03:15:31.262Z,9.54
2022-10-20T03:16:31.063Z,9.53
2022-10-20T03:17:31.034Z,9.5
2022-10-20T03:18:30.905Z,9.51
2022-10-20T03:19:30.990Z,9.49
2022-10-20T03:20:31.254Z,9.49
2022-10-20T03:21:31.056Z,9.5
2022-10-20T03:22:34.014Z,9.5
2022-10-20T03:23:31.256Z,9.48
2022-10-20T03:24:30.968Z,9.48
2022-10-20T03:25:31.366Z,9.49
2022-10-20T03:26:30.976Z,9.51
2022-10-20T03:27:30.902Z,9.51
2022-10-20T03:28:30.996Z,9.51
2022-10-20T03:29:30.972Z,9.52
2022-10-20T03:30:31.387Z,9.5
2022-10-20T03:31:30.980Z,9.5
2022-10-20T03:32:31.005Z,9.49
2022-10-20T03:33:34.029Z,9.49
2022-10-20T03:34:30.984Z,9.51
2022-10-20T03:35:31.260Z,9.48
2022-10-20T03:36:30.990Z,9.5
2022-10-20T03:37:31.067Z,9.49
2022-10-20T03:38:33.153Z,9.52
2022-10-20T03:39:30.876Z,9.51
2022-10-20T03:40:31.455Z,9.52
2022-10-20T03:41:30.963Z,9.51
2022-10-20T03:42:31.038Z,9.51
2022-10-20T03:43:31.072Z,9.55
2022-10-20T03:44:34.044Z,9.55
2022-10-20T03:45:31.093Z,9.55
2022-10-20T03:46:31.264Z,9.55
2022-10-20T03:47:31.027Z,9.53
2022-10-20T03:48:30.888Z,9.52
2022-10-20T03:49:30.884Z,9.54
2022-10-20T03:50:31.340Z,9.53
2022-10-20T03:51:30.905Z,9.52
2022-10-20T03:52:30.960Z,9.54
2022-10-20T03:53:31.002Z,9.54
2022-10-20T03:54:32.574Z,9.54
2022-10-20T03:55:36.969Z,9.54
2022-10-20T03:56:31.093Z,9.55
2022-10-20T03:57:30.896Z,9.54
2022-10-20T03:58:31.009Z,9.55
2022-10-20T03:59:31.011Z,9.56
2022-10-20T04:00:31.301Z,9.58
2022-10-20T04:01:30.995Z,9.61
2022-10-20T04:02:30.905Z,9.64
2022-10-20T04:03:30.888Z,9.63
2022-10-20T04:04:31.009Z,9.66
2022-10-20T04:05:31.256Z,9.64
2022-10-20T04:06:34.002Z,9.64
2022-10-20T04:07:31.067Z,9.66
2022-10-20T04:08:30.969Z,9.66
2022-10-20T04:09:31.258Z,9.66
2022-10-20T04:10:31.313Z,9.66
2022-10-20T04:11:30.866Z,9.66
2022-10-20T04:12:30.886Z,9.64
2022-10-20T04:13:30.922Z,9.66
2022-10-20T04:14:30.997Z,9.68
2022-10-20T04:15:31.346Z,9.68
2022-10-20T04:16:30.905Z,9.71
2022-10-20T04:17:34.016Z,9.69
2022-10-20T04:18:31.099Z,9.7
2022-10-20T04:19:30.906Z,9.71
2022-10-20T04:20:31.257Z,9.68
2022-10-20T04:21:31.085Z,9.68
2022-10-20T04:22:31.106Z,9.68
2022-10-20T04:23:30.904Z,9.67
2022-10-20T04:24:31.502Z,9.66
2022-10-20T04:25:31.261Z,9.65
2022-10-20T04:26:31.087Z,9.66
2022-10-20T04:27:30.985Z,9.65
2022-10-20T04:28:33.923Z,9.67
2022-10-20T04:29:31.045Z,9.68
2022-10-20T04:30:31.257Z,9.69
2022-10-20T04:31:31.099Z,9.69
2022-10-20T04:32:30.978Z,9.68
2022-10-20T04:33:30.897Z,9.67
2022-10-20T04:34:31.769Z,9.73
2022-10-20T04:35:31.258Z,9.77
2022-10-20T04:36:30.889Z,9.82
2022-10-20T04:37:30.900Z,9.86
2022-10-20T04:38:31.003Z,9.86
2022-10-20T04:39:36.915Z,9.86
2022-10-20T04:40:31.308Z,9.86
2022-10-20T04:41:30.934Z,9.82
2022-10-20T04:42:30.992Z,9.81
2022-10-20T04:43:31.110Z,9.81
2022-10-20T04:44:30.972Z,9.81
2022-10-20T04:45:31.264Z,9.81
2022-10-20T04:46:31.026Z,9.81
2022-10-20T04:47:31.014Z,9.81
2022-10-20T04:48:30.988Z,9.81
2022-10-20T04:49:30.969Z,9.81
2022-10-20T04:50:36.971Z,9.81
2022-10-20T04:51:31.057Z,9.84
2022-10-20T04:52:31.035Z,9.86
2022-10-20T04:53:30.964Z,9.9
2022-10-20T04:54:31.251Z,9.91
2022-10-20T04:55:31.326Z,9.97
2022-10-20T04:56:30.884Z,9.95
2022-10-20T04:57:30.902Z,9.93
2022-10-20T04:58:30.888Z,9.95
2022-10-20T04:59:30.893Z,9.9
2022-10-20T05:00:31.468Z,9.85
2022-10-20T05:01:34.053Z,9.84
2022-10-20T05:02:31.124Z,9.82
2022-10-20T05:03:30.913Z,9.8
2022-10-20T05:04:30.999Z,9.77
2022-10-20T05:05:31.252Z,9.76
2022-10-20T05:06:31.095Z,9.76
2022-10-20T05:07:31.003Z,9.74
2022-10-20T05:08:31.062Z,9.71
2022-10-20T05:09:31.332Z,9.71
2022-10-20T05:10:34.451Z,9.68
2022-10-20T05:11:31.031Z,9.68
2022-10-20T05:12:34.266Z,9.69
2022-10-20T05:13:30.959Z,9.68
2022-10-20T05:14:30.981Z,9.68
2022-10-20T05:15:31.337Z,9.66
2022-10-20T05:16:31.011Z,9.61
2022-10-20T05:17:30.908Z,9.61
2022-10-20T05:18:30.892Z,9.58
2022-10-20T05:19:30.887Z,9.52
2022-10-20T05:20:36.829Z,9.47
2022-10-20T05:21:30.961Z,9.45
2022-10-20T05:22:30.879Z,9.46
2022-10-20T05:23:33.901Z,9.46
2022-10-20T05:24:31.253Z,9.44
2022-10-20T05:25:36.606Z,9.44
2022-10-20T05:26:31.158Z,9.47
2022-10-20T05:27:31.134Z,9.49
2022-10-20T05:28:31.008Z,9.49
2022-10-20T05:29:30.989Z,9.53
2022-10-20T05:30:31.347Z,9.53
2022-10-20T05:31:31.102Z,9.53
2022-10-20T05:32:31.088Z,9.54
2022-10-20T05:33:30.984Z,9.51
2022-10-20T05:34:34.849Z,9.5
2022-10-20T05:35:31.121Z,9.51
2022-10-20T05:36:31.248Z,9.53
2022-10-20T05:37:30.979Z,9.53
2022-10-20T05:38:30.916Z,9.59
2022-10-20T05:39:31.046Z,9.63
2022-10-20T05:40:31.269Z,9.64
2022-10-20T05:41:33.411Z,9.65
2022-10-20T05:42:31.018Z,9.69
2022-10-20T05:43:31.105Z,9.76
2022-10-20T05:44:31.023Z,9.77
2022-10-20T05:45:36.946Z,9.76
2022-10-20T05:46:31.073Z,9.75
2022-10-20T05:47:31.038Z,9.74
2022-10-20T05:48:30.964Z,9.73
2022-10-20T05:49:30.976Z,9.74
2022-10-20T05:50:31.254Z,9.76
2022-10-20T05:51:31.042Z,9.76
2022-10-20T05:52:30.933Z,9.75
2022-10-20T05:53:31.046Z,9.73
2022-10-20T05:54:30.897Z,9.75
2022-10-20T05:55:31.325Z,9.74
2022-10-20T05:56:33.903Z,9.73
2022-10-20T05:57:31.008Z,9.71
2022-10-20T05:58:30.901Z,9.73
2022-10-20T05:59:30.906Z,9.72
2022-10-20T06:00:31.366Z,9.75
2022-10-20T06:01:31.119Z,9.75
2022-10-20T06:02:30.999Z,9.8
2022-10-20T06:03:30.916Z,9.78
2022-10-20T06:04:30.913Z,9.82
2022-10-20T06:05:31.270Z,9.83
2022-10-20T06:06:31.048Z,9.85
2022-10-20T06:07:34.058Z,9.89
2022-10-20T06:08:31.085Z,9.91
2022-10-20T06:09:30.883Z,9.95
2022-10-20T06:10:31.375Z,9.94
2022-10-20T06:11:32.209Z,9.99
2022-10-20T06:12:31.084Z,9.96
2022-10-20T06:13:31.027Z,9.97
2022-10-20T06:14:31.040Z,9.98
2022-10-20T06:15:31.252Z,10
2022-10-20T06:16:31.118Z,10.03
2022-10-20T06:17:31.056Z,10.09
2022-10-20T06:18:33.951Z,10.11
2022-10-20T06:19:31.007Z,10.15
2022-10-20T06:20:31.254Z,10.17
2022-10-20T06:21:31.000Z,10.2
2022-10-20T06:22:30.908Z,10.24
2022-10-20T06:23:30.971Z,10.28
2022-10-20T06:24:30.994Z,10.32
2022-10-20T06:25:31.323Z,10.31
2022-10-20T06:26:30.905Z,10.41
2022-10-20T06:27:31.022Z,10.45
2022-10-20T06:28:31.079Z,10.47
2022-10-20T06:29:34.017Z,10.54
2022-10-20T06:30:31.307Z,10.57
2022-10-20T06:31:31.085Z,10.65
2022-10-20T06:32:31.024Z,10.66
2022-10-20T06:33:30.998Z,10.73
2022-10-20T06:34:31.008Z,10.77
2022-10-20T06:35:31.256Z,10.8
2022-10-20T06:36:31.046Z,10.81
2022-10-20T06:37:31.098Z,10.88
2022-10-20T06:38:31.019Z,10.91
2022-10-20T06:39:30.971Z,10.93
2022-10-20T06:40:31.296Z,10.96
2022-10-20T06:41:30.863Z,10.99
2022-10-20T06:42:31.268Z,11.05
2022-10-20T06:43:30.967Z,11.07
2022-10-20T06:44:31.013Z,11.02
2022-10-20T06:45:33.878Z,11.05
2022-10-20T06:46:31.263Z,11
2022-10-20T06:47:31.031Z,11.02
2022-10-20T06:48:30.969Z,11.07
2022-10-20T06:49:31.023Z,11.16
2022-10-20T06:50:31.105Z,11.21
2022-10-20T06:51:31.264Z,11.28
2022-10-20T06:52:30.911Z,11.3
2022-10-20T06:53:31.028Z,11.3
2022-10-20T06:54:30.899Z,11.32
2022-10-20T06:55:31.327Z,11.33
2022-10-20T06:56:36.944Z,11.38
2022-10-20T06:57:31.102Z,11.48
2022-10-20T06:58:31.097Z,11.48
2022-10-20T06:59:30.996Z,11.37
2022-10-20T07:01:45.022Z,11.38
2022-10-20T07:02:38.678Z,11.42
2022-10-20T07:03:38.336Z,11.56
2022-10-20T07:04:38.375Z,11.6
2022-10-20T07:05:38.358Z,11.62
2022-10-20T07:06:38.625Z,11.69
2022-10-20T07:07:38.272Z,11.74
2022-10-20T07:08:38.356Z,11.7
2022-10-20T07:09:38.337Z,11.73
2022-10-20T07:10:38.692Z,11.76
2022-10-20T07:11:38.438Z,11.79
2022-10-20T07:12:41.285Z,11.77
2022-10-20T07:13:38.463Z,11.83
2022-10-20T07:14:38.448Z,11.83
2022-10-20T07:15:38.666Z,11.87
2022-10-20T07:16:38.457Z,11.87
2022-10-20T07:17:38.447Z,11.88
2022-10-20T07:18:41.174Z,11.87
2022-10-20T07:19:38.326Z,11.93
2022-10-20T07:20:38.684Z,12.02
2022-10-20T07:21:41.653Z,12.03
2022-10-20T07:22:38.891Z,12.06
2022-10-20T07:23:41.361Z,12.07
2022-10-20T07:24:38.333Z,12.13
2022-10-20T07:25:38.710Z,12.11
2022-10-20T07:26:38.339Z,12
2022-10-20T07:27:38.243Z,11.92
2022-10-20T07:28:38.241Z,11.92
2022-10-20T07:29:38.370Z,11.99
2022-10-20T07:30:38.696Z,12.07
2022-10-20T07:31:38.450Z,12.17
2022-10-20T07:32:38.765Z,12.28
2022-10-20T07:33:38.314Z,12.3
2022-10-20T07:34:41.261Z,12.32
2022-10-20T07:35:38.610Z,12.4
2022-10-20T07:36:38.436Z,12.58
2022-10-20T07:37:38.860Z,12.75
2022-10-20T07:38:38.247Z,12.99
2022-10-20T07:39:38.242Z,13.13
2022-10-20T07:40:38.752Z,13.14
2022-10-20T07:41:38.327Z,13.16
2022-10-20T07:42:38.905Z,13.22
2022-10-20T07:43:38.316Z,13.23
2022-10-20T07:44:38.263Z,13.25
2022-10-20T07:45:44.292Z,13.25
2022-10-20T07:46:38.403Z,13.32
2022-10-20T07:47:39.608Z,13.27
2022-10-20T07:48:38.458Z,13.34
2022-10-20T07:49:43.836Z,13.36
2022-10-20T07:50:38.653Z,13.47
2022-10-20T07:51:38.227Z,13.62
2022-10-20T07:52:38.669Z,13.59
2022-10-20T07:53:38.365Z,13.68
2022-10-20T07:54:38.374Z,13.63
2022-10-20T07:55:39.351Z,13.63
2022-10-20T07:56:41.368Z,13.64
2022-10-20T07:57:38.359Z,13.55
2022-10-20T07:58:40.748Z,13.58
2022-10-20T07:59:38.412Z,13.8
2022-10-20T08:01:49.439Z,14.14
2022-10-20T08:02:45.741Z,14.37
2022-10-20T08:03:45.549Z,14.33
2022-10-20T08:04:45.650Z,14.32
2022-10-20T08:05:45.902Z,14.3
2022-10-20T08:06:45.648Z,14.16
2022-10-20T08:07:45.542Z,14.13
2022-10-20T08:08:45.574Z,14.05
2022-10-20T08:10:52.764Z,14.07
2022-10-20T08:11:55.325Z,14.16
2022-10-20T08:12:52.338Z,14.34
2022-10-20T08:13:52.319Z,14.52
2022-10-20T08:14:52.346Z,14.44
2022-10-20T08:15:59.203Z,14.41
2022-10-20T08:16:53.820Z,14.49
2022-10-20T08:17:52.562Z,14.66
2022-10-20T08:18:53.139Z,14.82
2022-10-20T08:19:57.315Z,14.84
2022-10-20T08:20:52.695Z,14.91
2022-10-20T08:21:52.443Z,15.08
2022-10-20T08:22:52.430Z,15.15
2022-10-20T08:23:52.483Z,15.24
2022-10-20T08:24:52.524Z,15.29
2022-10-20T08:25:52.811Z,15.22
2022-10-20T08:26:55.335Z,15.2
2022-10-20T08:27:52.474Z,15.24
2022-10-20T08:28:52.415Z,15.3
2022-10-20T08:30:00.366Z,15.29
2022-10-20T08:30:52.770Z,15.26
2022-10-20T08:31:52.408Z,15.2
2022-10-20T08:32:52.339Z,15.11
2022-10-20T08:33:53.113Z,14.94
2022-10-20T08:34:52.416Z,14.91
2022-10-20T08:35:53.030Z,15.05
2022-10-20T08:36:52.511Z,15.06
2022-10-20T08:37:55.374Z,15.21
2022-10-20T08:38:52.433Z,15.29
2022-10-20T08:39:52.334Z,15.38
2022-10-20T08:40:52.777Z,15.59
2022-10-20T08:42:07.643Z,15.71
2022-10-20T08:42:52.430Z,15.81
2022-10-20T08:43:52.433Z,15.81
2022-10-20T08:44:52.457Z,15.61
2022-10-20T08:45:52.698Z,15.53
2022-10-20T08:46:52.414Z,15.58
2022-10-20T08:47:52.399Z,15.66
2022-10-20T08:48:55.352Z,15.68
2022-10-20T08:49:52.447Z,15.75
2022-10-20T08:50:52.766Z,15.93
2022-10-20T08:51:52.556Z,15.98
2022-10-20T08:52:52.554Z,16.05
2022-10-20T08:53:52.399Z,16.02
2022-10-20T08:54:52.318Z,16.01
2022-10-20T08:55:52.776Z,16.25
2022-10-20T08:56:52.451Z,16.47
2022-10-20T08:57:52.320Z,16.4
2022-10-20T08:58:52.433Z,16.26
2022-10-20T08:59:55.462Z,16.15
2022-10-20T09:00:52.691Z,16.1
2022-10-20T09:01:52.455Z,16.14
2022-10-20T09:02:52.339Z,16.16
2022-10-20T09:03:52.474Z,16.14
2022-10-20T09:04:52.421Z,16.18
2022-10-20T09:05:52.703Z,15.99
2022-10-20T09:06:52.476Z,15.79
2022-10-20T09:07:52.516Z,15.9
2022-10-20T09:08:52.477Z,16.06
2022-10-20T09:09:52.461Z,15.99
2022-10-20T09:10:58.378Z,15.83
2022-10-20T09:11:52.448Z,15.8
2022-10-20T09:12:52.326Z,15.85
2022-10-20T09:13:52.353Z,15.9
2022-10-20T09:14:52.452Z,16.03
2022-10-20T09:15:52.691Z,16.18
2022-10-20T09:17:00.562Z,16.31
2022-10-20T09:17:52.455Z,16.39
2022-10-20T09:18:52.450Z,16.51
2022-10-20T09:19:53.968Z,16.6
2022-10-20T09:20:52.699Z,16.73
2022-10-20T09:21:55.458Z,16.79
2022-10-20T09:22:52.442Z,16.94
2022-10-20T09:23:52.431Z,17.11
2022-10-20T09:24:52.465Z,17.19
2022-10-20T09:25:52.774Z,17.18
2022-10-20T09:26:58.836Z,17.14
2022-10-20T09:27:52.398Z,17.04
2022-10-20T09:29:12.027Z,17.13
2022-10-20T09:29:52.389Z,17.34
2022-10-20T09:30:52.785Z,17.54
2022-10-20T09:31:52.507Z,17.7
2022-10-20T09:32:55.342Z,17.51
2022-10-20T09:33:52.395Z,17.49
2022-10-20T09:34:52.337Z,17.15
2022-10-20T09:35:52.759Z,17.2
2022-10-20T09:36:52.524Z,17.08
2022-10-20T09:37:52.351Z,17.1
2022-10-20T09:38:52.341Z,17.23
2022-10-20T09:39:55.356Z,17.44
2022-10-20T09:40:52.761Z,17.65
2022-10-20T09:41:52.437Z,18.11
2022-10-20T09:42:52.313Z,18.27
2022-10-20T09:43:57.325Z,18.51
2022-10-20T09:44:52.559Z,18.62
2022-10-20T09:45:52.696Z,18.63
2022-10-20T09:46:52.438Z,18.77
2022-10-20T09:47:52.463Z,19.04
2022-10-20T09:48:52.500Z,19.11
2022-10-20T09:49:55.080Z,18.9
2022-10-20T09:50:52.765Z,18.84
2022-10-20T09:52:59.270Z,19.01
2022-10-20T09:53:59.372Z,18.97
2022-10-20T09:54:59.458Z,18.77
2022-10-20T09:55:59.624Z,18.22
2022-10-20T09:56:59.420Z,18.03
2022-10-20T09:58:02.411Z,17.85
2022-10-20T09:58:59.416Z,17.69
2022-10-20T10:00:04.467Z,17.61
2022-10-20T10:00:59.409Z,17.76
2022-10-20T10:01:59.348Z,17.96
2022-10-20T10:02:59.301Z,18.09
2022-10-20T10:03:59.361Z,17.98
2022-10-20T10:04:59.230Z,18.1
2022-10-20T10:05:59.664Z,18.43
2022-10-20T10:06:59.309Z,18.95
2022-10-20T10:07:59.217Z,19.32
2022-10-20T10:09:02.469Z,19.5
2022-10-20T10:10:01.318Z,19.83
2022-10-20T10:10:59.653Z,19.88
2022-10-20T10:11:59.376Z,19.61
2022-10-20T10:12:59.273Z,19.56
2022-10-20T10:13:59.351Z,19.52
2022-10-20T10:14:59.244Z,19.4
2022-10-20T10:15:59.663Z,19.17
2022-10-20T10:16:59.311Z,18.7
2022-10-20T10:17:59.212Z,18.38
2022-10-20T10:18:59.338Z,18.06
2022-10-20T10:20:02.378Z,17.78
2022-10-20T10:20:59.587Z,17.7
2022-10-20T10:21:59.436Z,17.59
2022-10-20T10:22:59.456Z,17.46
2022-10-20T10:23:59.287Z,17.42
2022-10-20T10:24:59.253Z,17.41
2022-10-20T10:26:02.245Z,17.34
2022-10-20T10:26:59.216Z,17.25
2022-10-20T10:27:59.228Z,17.18
2022-10-20T10:28:59.312Z,17.13
2022-10-20T10:29:59.311Z,17.12
2022-10-20T10:31:05.290Z,17.07
2022-10-20T10:31:59.330Z,17.04
2022-10-20T10:32:59.217Z,17.09
2022-10-20T10:33:59.355Z,17.07
2022-10-20T10:34:59.402Z,17.06
2022-10-20T10:35:59.659Z,17.03
2022-10-20T10:36:59.254Z,17.05
2022-10-20T10:37:59.342Z,17.12
2022-10-20T10:38:59.431Z,17.13
2022-10-20T10:39:59.359Z,17.07
2022-10-20T10:40:59.786Z,17.02
2022-10-20T10:42:02.399Z,16.95
2022-10-20T10:42:59.357Z,16.88
2022-10-20T10:43:59.347Z,16.8
2022-10-20T10:44:59.381Z,16.74
2022-10-20T10:45:59.663Z,16.72
2022-10-20T10:46:59.457Z,16.78
2022-10-20T10:47:59.356Z,16.82
2022-10-20T10:48:59.416Z,16.93
2022-10-20T10:49:59.239Z,17.01
2022-10-20T10:50:59.675Z,16.98
2022-10-20T10:51:59.362Z,16.93
2022-10-20T10:53:02.279Z,16.93
2022-10-20T10:53:59.296Z,16.91
2022-10-20T10:54:59.253Z,16.67
2022-10-20T10:55:59.730Z,16.62
2022-10-20T10:56:59.399Z,16.65
2022-10-20T10:57:59.362Z,16.54
2022-10-20T10:58:59.287Z,16.53
2022-10-20T10:59:59.340Z,16.54
2022-10-20T11:00:59.661Z,16.57
2022-10-20T11:01:59.321Z,16.46
2022-10-20T11:02:59.329Z,16.4
2022-10-20T11:04:02.277Z,16.4
2022-10-20T11:04:59.305Z,16.42
2022-10-20T11:05:59.659Z,16.39
2022-10-20T11:06:59.429Z,16.33
2022-10-20T11:07:59.398Z,16.28
2022-10-20T11:08:59.325Z,16.28
2022-10-20T11:09:59.247Z,16.26
2022-10-20T11:10:59.666Z,16.34
2022-10-20T11:11:59.305Z,16.38
2022-10-20T11:12:59.275Z,16.41
2022-10-20T11:13:59.223Z,16.48
2022-10-20T11:15:02.426Z,16.58
2022-10-20T11:15:59.591Z,16.73
2022-10-20T11:16:59.297Z,16.84
2022-10-20T11:17:59.309Z,16.89
2022-10-20T11:18:59.239Z,16.99
2022-10-20T11:19:59.282Z,17.05
2022-10-20T11:20:59.594Z,17.06
2022-10-20T11:21:59.239Z,17.22
2022-10-20T11:22:59.327Z,17.39
2022-10-20T11:23:59.441Z,17.47
2022-10-20T11:24:59.294Z,17.6
2022-10-20T11:26:05.256Z,17.71
2022-10-20T11:26:59.412Z,17.83
2022-10-20T11:27:59.329Z,18.05
2022-10-20T11:28:59.374Z,18.17
2022-10-20T11:29:59.357Z,18.4
2022-10-20T11:30:59.604Z,18.66
2022-10-20T11:31:59.355Z,18.78
2022-10-20T11:32:59.252Z,18.66
2022-10-20T11:33:59.213Z,18.54
2022-10-20T11:34:59.216Z,18.46
2022-10-20T11:35:59.248Z,18.43
2022-10-20T11:37:02.262Z,18.37
2022-10-20T11:37:59.330Z,18.4
2022-10-20T11:38:59.371Z,18.4
2022-10-20T11:40:01.210Z,18.41
2022-10-20T11:40:59.844Z,18.46
2022-10-20T11:41:59.372Z,18.44
2022-10-20T11:42:59.314Z,18.16
2022-10-20T11:43:59.348Z,17.94
2022-10-20T11:44:59.443Z,17.86
2022-10-20T11:45:59.585Z,17.88
2022-10-20T11:46:59.327Z,17.93
2022-10-20T11:48:02.258Z,17.92
2022-10-20T11:49:01.841Z,17.93
2022-10-20T11:49:59.340Z,17.94
2022-10-20T11:50:59.638Z,18
2022-10-20T11:51:59.413Z,18
2022-10-20T11:52:59.407Z,17.89
2022-10-20T11:53:59.235Z,17.84
2022-10-20T11:54:59.326Z,17.93
2022-10-20T11:55:59.705Z,18.04
2022-10-20T11:56:59.310Z,17.98
2022-10-20T11:58:01.124Z,17.83
2022-10-20T11:59:02.200Z,17.68
2022-10-20T11:59:59.410Z,17.58
2022-10-20T12:00:59.911Z,17.51
2022-10-20T12:01:59.339Z,17.5
2022-10-20T12:02:59.209Z,17.47
2022-10-20T12:03:59.209Z,17.36
2022-10-20T12:04:59.409Z,17.32
2022-10-20T12:05:59.661Z,17.29
2022-10-20T12:06:59.398Z,17.24
2022-10-20T12:08:17.384Z,17.17
2022-10-20T12:08:59.374Z,17.09
2022-10-20T12:10:02.344Z,17.06
2022-10-20T12:10:59.590Z,17.02
2022-10-20T12:11:59.289Z,17.03
2022-10-20T12:12:59.362Z,17.06
2022-10-20T12:13:59.318Z,17.11
2022-10-20T12:14:59.355Z,17.07
2022-10-20T12:15:59.587Z,17.08
2022-10-20T12:16:59.357Z,17.13
2022-10-20T12:17:59.317Z,17.2
2022-10-20T12:18:59.218Z,17.24
2022-10-20T12:19:59.208Z,17.22
2022-10-20T12:21:05.318Z,17.21
2022-10-20T12:21:59.299Z,17.2
2022-10-20T12:22:59.237Z,16.89
2022-10-20T12:23:59.313Z,16.79
2022-10-20T12:24:59.586Z,16.8
2022-10-20T12:25:59.636Z,16.81
2022-10-20T12:26:59.331Z,16.7
2022-10-20T12:29:07.339Z,16.55
2022-10-20T12:30:07.712Z,16.6
2022-10-20T12:31:07.440Z,16.56
2022-10-20T12:32:07.313Z,16.5
2022-10-20T12:33:07.357Z,16.47
2022-10-20T12:34:10.403Z,16.41
2022-10-20T12:35:07.398Z,16.41
2022-10-20T12:36:07.323Z,16.48
2022-10-20T12:37:07.359Z,16.5
2022-10-20T12:38:07.267Z,16.42
2022-10-20T12:39:07.293Z,16.31
2022-10-20T12:40:07.243Z,16.33
2022-10-20T12:41:07.694Z,16.29
2022-10-20T12:42:07.373Z,16.09
2022-10-20T12:43:07.262Z,16.1
2022-10-20T12:44:07.358Z,16.18
2022-10-20T12:45:13.461Z,16.14
2022-10-20T12:46:07.652Z,16.15
2022-10-20T12:47:07.341Z,16.11
2022-10-20T12:48:07.370Z,16.1
2022-10-20T12:49:11.010Z,16.09
2022-10-20T12:50:07.701Z,16.11
2022-10-20T12:51:07.301Z,16.09
2022-10-20T12:52:07.405Z,16.09
2022-10-20T12:53:07.336Z,16.14
2022-10-20T12:54:07.269Z,16.11
2022-10-20T12:55:07.683Z,16.02
2022-10-20T12:56:10.743Z,15.83
2022-10-20T12:57:07.476Z,15.64
2022-10-20T12:58:07.386Z,15.53
2022-10-20T12:59:07.393Z,15.51
2022-10-20T13:00:08.897Z,15.48
2022-10-20T13:01:07.445Z,15.54
2022-10-20T13:02:07.270Z,15.63
2022-10-20T13:03:07.373Z,15.73
2022-10-20T13:04:07.270Z,15.75
2022-10-20T13:05:07.647Z,15.83
2022-10-20T13:06:07.334Z,15.9
2022-10-20T13:07:10.274Z,15.96
2022-10-20T13:08:07.368Z,16
2022-10-20T13:09:07.519Z,16.04
2022-10-20T13:10:07.725Z,16.09
2022-10-20T13:11:07.455Z,16.11
2022-10-20T13:12:07.373Z,16.07